createdAt,value
2024-01-20T00:01:34.922Z,101675.75
2024-01-20T00:04:02.435Z,101674.06
2024-01-20T00:06:29.110Z,101672.31
2024-01-20T00:08:56.302Z,101681.25
2024-01-20T00:11:23.051Z,101678.56
2024-01-20T00:13:49.753Z,101686.44
2024-01-20T00:16:16.410Z,101680.28
2024-01-20T00:18:44.186Z,101682.88
2024-01-20T00:21:10.838Z,101679.41
2024-01-20T00:23:37.814Z,101694.31
2024-01-20T00:26:04.870Z,101678.47
2024-01-20T00:28:31.488Z,101681.13
2024-01-20T00:30:58.090Z,101687.28
2024-01-20T00:33:24.840Z,101682.06
2024-01-20T00:35:51.644Z,101687.22
2024-01-20T00:38:18.336Z,101687.97
2024-01-20T00:40:44.900Z,101687.91
2024-01-20T00:43:11.599Z,101697.53
2024-01-20T00:45:38.136Z,101700.22
2024-01-20T00:48:05.130Z,101702.81
2024-01-20T00:50:31.755Z,101705.50
2024-01-20T00:52:58.463Z,101705.53
2024-01-20T00:55:25.081Z,101722.25
2024-01-20T00:57:51.753Z,101710.81
2024-01-20T01:00:18.432Z,101720.38
2024-01-20T01:02:44.988Z,101721.25
2024-01-20T01:05:11.661Z,101725.59
2024-01-20T01:07:38.279Z,101718.53
2024-01-20T01:10:05.351Z,101731.75
2024-01-20T01:12:31.982Z,101738.91
2024-01-20T01:14:58.570Z,101738.88
2024-01-20T01:17:25.216Z,101742.44
2024-01-20T01:19:51.872Z,101745.06
2024-01-20T01:22:18.489Z,101760.88
2024-01-20T01:24:45.129Z,101745.94
2024-01-20T01:27:11.777Z,101761.81
2024-01-20T01:29:38.561Z,101763.47
2024-01-20T01:32:05.271Z,101749.47
2024-01-20T01:34:31.944Z,101748.53
2024-01-20T01:36:58.494Z,101758.13
2024-01-20T01:39:25.021Z,101767.88
2024-01-20T01:41:51.630Z,101762.53
2024-01-20T01:44:18.456Z,101776.56
2024-01-20T01:46:45.070Z,101777.50
2024-01-20T01:49:11.677Z,101768.75
2024-01-20T01:51:38.342Z,101780.97
2024-01-20T01:54:05.021Z,101772.91
2024-01-20T01:56:31.654Z,101776.38
2024-01-20T01:58:58.290Z,101771.16
2024-01-20T02:01:24.877Z,101780.63
2024-01-20T02:03:51.754Z,101785.84
2024-01-20T02:06:18.612Z,101785.00
2024-01-20T02:08:45.191Z,101791.06
2024-01-20T02:11:11.777Z,101791.88
2024-01-20T02:13:38.414Z,101790.03
2024-01-20T02:16:05.219Z,101790.81
2024-01-20T02:18:32.021Z,101790.75
2024-01-20T02:20:58.747Z,101804.88
2024-01-20T02:23:25.326Z,101802.44
2024-01-20T02:25:51.907Z,101805.03
2024-01-20T02:28:18.533Z,101797.09
2024-01-20T02:30:45.497Z,101804.13
2024-01-20T02:33:12.185Z,101810.38
2024-01-20T02:35:38.815Z,101806.66
2024-01-20T02:38:05.419Z,101810.13
2024-01-20T02:40:32.042Z,101805.69
2024-01-20T02:42:58.663Z,101802.22
2024-01-20T02:45:25.353Z,101803.91
2024-01-20T02:47:52.173Z,101805.59
2024-01-20T02:50:19.103Z,101802.94
2024-01-20T02:52:45.640Z,101805.75
2024-01-20T02:55:12.190Z,101808.38
2024-01-20T02:57:38.860Z,101800.38
2024-01-20T03:00:06.344Z,101802.81
2024-01-20T03:02:32.980Z,101810.78
2024-01-20T03:05:00.970Z,101801.09
2024-01-20T03:07:27.619Z,101809.91
2024-01-20T03:09:54.234Z,101815.19
2024-01-20T03:12:20.970Z,101818.69
2024-01-20T03:14:47.564Z,101820.41
2024-01-20T03:17:14.191Z,101818.59
2024-01-20T03:19:40.793Z,101815.19
2024-01-20T03:22:07.556Z,101824.00
2024-01-20T03:24:34.177Z,101815.41
2024-01-20T03:27:00.873Z,101813.78
2024-01-20T03:29:27.451Z,101819.84
2024-01-20T03:31:54.001Z,101827.75
2024-01-20T03:34:20.692Z,101820.81
2024-01-20T03:36:47.341Z,101810.22
2024-01-20T03:39:14.046Z,101815.63
2024-01-20T03:41:40.714Z,101811.09
2024-01-20T03:44:07.395Z,101823.25
2024-01-20T03:46:33.998Z,101822.22
2024-01-20T03:49:00.754Z,101826.69
2024-01-20T03:51:27.826Z,101833.72
2024-01-20T03:53:54.791Z,101830.28
2024-01-20T03:56:21.439Z,101839.00
2024-01-20T03:58:48.015Z,101841.56
2024-01-20T04:01:14.678Z,101837.13
2024-01-20T04:03:41.365Z,101838.00
2024-01-20T04:06:08.060Z,101854.72
2024-01-20T04:08:34.617Z,101845.88
2024-01-20T04:11:01.234Z,101861.63
2024-01-20T04:13:27.807Z,101854.78
2024-01-20T04:15:54.365Z,101850.47
2024-01-20T04:18:20.987Z,101858.31
2024-01-20T04:20:47.655Z,101859.41
2024-01-20T04:23:14.296Z,101855.03
2024-01-20T04:25:40.862Z,101863.00
2024-01-20T04:28:07.525Z,101873.44
2024-01-20T04:30:34.208Z,101871.75
2024-01-20T04:33:00.918Z,101868.22
2024-01-20T04:35:27.530Z,101864.75
2024-01-20T04:37:54.211Z,101861.22
2024-01-20T04:40:20.749Z,101870.81
2024-01-20T04:42:47.381Z,101868.09
2024-01-20T04:45:14.146Z,101865.59
2024-01-20T04:47:40.770Z,101874.44
2024-01-20T04:50:07.977Z,101873.47
2024-01-20T04:52:34.545Z,101868.13
2024-01-20T04:55:01.164Z,101868.06
2024-01-20T04:57:27.686Z,101875.00
2024-01-20T04:59:54.424Z,101888.97
2024-01-20T05:02:21.031Z,101880.06
2024-01-20T05:04:48.430Z,101886.13
2024-01-20T05:07:15.079Z,101879.22
2024-01-20T05:09:41.746Z,101886.97
2024-01-20T05:12:08.357Z,101884.22
2024-01-20T05:14:35.039Z,101895.41
2024-01-20T05:17:01.619Z,101889.94
2024-01-20T05:19:28.467Z,101897.00
2024-01-20T05:21:55.088Z,101896.13
2024-01-20T05:24:21.725Z,101895.31
2024-01-20T05:26:48.470Z,101901.28
2024-01-20T05:29:15.066Z,101908.19
2024-01-20T05:31:41.732Z,101914.97
2024-01-20T05:34:08.513Z,101924.63
2024-01-20T05:36:35.271Z,101903.28
2024-01-20T05:39:01.929Z,101924.50
2024-01-20T05:41:28.481Z,101921.16
2024-01-20T05:43:55.043Z,101928.09
2024-01-20T05:46:21.700Z,101917.59
2024-01-20T05:48:48.349Z,101919.28
2024-01-20T05:51:15.116Z,101926.41
2024-01-20T05:53:41.752Z,101924.53
2024-01-20T05:56:08.382Z,101927.94
2024-01-20T05:58:34.987Z,101923.59
2024-01-20T06:01:01.598Z,101924.34
2024-01-20T06:03:28.350Z,101927.06
2024-01-20T06:05:55.396Z,101933.25
2024-01-20T06:08:22.038Z,101929.69
2024-01-20T06:10:48.654Z,101938.47
2024-01-20T06:13:15.175Z,101936.72
2024-01-20T06:15:42.880Z,101938.47
2024-01-20T06:18:09.668Z,101945.41
2024-01-20T06:20:36.354Z,101951.66
2024-01-20T06:23:02.921Z,101939.44
2024-01-20T06:25:29.630Z,101950.94
2024-01-20T06:27:56.401Z,101956.94
2024-01-20T06:30:23.173Z,101958.69
2024-01-20T06:32:49.806Z,101952.44
2024-01-20T06:35:16.472Z,101954.22
2024-01-20T06:37:43.096Z,101952.50
2024-01-20T06:40:10.008Z,101955.97
2024-01-20T06:42:36.608Z,101948.88
2024-01-20T06:45:03.491Z,101957.47
2024-01-20T06:47:30.113Z,101957.59
2024-01-20T06:49:56.688Z,101961.13
2024-01-20T06:52:23.210Z,101956.56
2024-01-20T06:54:49.891Z,101959.13
2024-01-20T06:57:16.590Z,101952.34
2024-01-20T06:59:43.329Z,101963.69
2024-01-20T07:02:09.891Z,101958.59
2024-01-20T07:04:36.532Z,101962.94
2024-01-20T07:07:03.394Z,101961.88
2024-01-20T07:09:30.009Z,101964.44
2024-01-20T07:11:56.808Z,101960.94
2024-01-20T07:14:23.395Z,101961.81
2024-01-20T07:16:49.974Z,101960.91
2024-01-20T07:19:16.603Z,101970.59
2024-01-20T07:21:43.235Z,101961.03
2024-01-20T07:24:09.959Z,101967.00
2024-01-20T07:26:36.503Z,101975.69
2024-01-20T07:29:03.128Z,101981.78
2024-01-20T07:31:29.784Z,101979.06
2024-01-20T07:33:56.411Z,101986.69
2024-01-20T07:36:22.993Z,101983.28
2024-01-20T07:38:49.628Z,101982.34
2024-01-20T07:41:16.180Z,101992.94
2024-01-20T07:43:42.745Z,101996.34
2024-01-20T07:46:09.368Z,102004.09
2024-01-20T07:48:36.160Z,101998.19
2024-01-20T07:51:02.962Z,102007.59
2024-01-20T07:53:29.704Z,102013.72
2024-01-20T07:56:01.624Z,102012.91
2024-01-20T07:58:28.862Z,102025.19
2024-01-20T08:01:02.691Z,102021.88
2024-01-20T08:03:43.389Z,102027.97
2024-01-20T08:06:11.234Z,102028.16
2024-01-20T08:08:37.862Z,102037.72
2024-01-20T08:11:04.477Z,102032.41
2024-01-20T08:13:31.062Z,102043.81
2024-01-20T08:15:57.580Z,102041.03
2024-01-20T08:18:24.336Z,102048.06
2024-01-20T08:20:50.954Z,102046.44
2024-01-20T08:23:17.517Z,102048.34
2024-01-20T08:25:44.193Z,102059.88
2024-01-20T08:28:10.778Z,102060.78
2024-01-20T08:30:37.437Z,102065.25
2024-01-20T08:33:05.419Z,102065.44
2024-01-20T08:35:33.478Z,102071.75
2024-01-20T08:38:00.059Z,102075.38
2024-01-20T08:40:26.621Z,102078.94
2024-01-20T08:42:53.224Z,102084.22
2024-01-20T08:45:19.890Z,102081.56
2024-01-20T08:47:46.466Z,102079.78
2024-01-20T08:50:13.078Z,102092.16
2024-01-20T08:52:39.719Z,102082.44
2024-01-20T08:55:06.693Z,102093.75
2024-01-20T08:57:33.330Z,102105.94
2024-01-20T09:00:00.296Z,102110.41
2024-01-20T09:02:27.706Z,102106.84
2024-01-20T09:04:54.290Z,102120.91
2024-01-20T09:07:20.855Z,102119.38
2024-01-20T09:09:47.546Z,102124.78
2024-01-20T09:12:14.125Z,102134.41
2024-01-20T09:14:40.764Z,102131.88
2024-01-20T09:17:07.304Z,102138.88
2024-01-20T09:19:33.854Z,102133.78
2024-01-20T09:22:00.642Z,102150.19
2024-01-20T09:24:27.203Z,102137.34
2024-01-20T09:26:53.800Z,102146.44
2024-01-20T09:29:20.354Z,102153.78
2024-01-20T09:31:46.982Z,102159.22
2024-01-20T09:34:13.751Z,102165.31
2024-01-20T09:36:40.448Z,102163.34
2024-01-20T09:39:07.091Z,102162.19
2024-01-20T09:41:33.682Z,102168.28
2024-01-20T09:44:00.271Z,102165.41
2024-01-20T09:46:26.870Z,102182.03
2024-01-20T09:48:53.548Z,102183.81
2024-01-20T09:51:20.206Z,102185.59
2024-01-20T09:53:46.753Z,102175.13
2024-01-20T09:56:13.278Z,102183.91
2024-01-20T09:58:39.857Z,102183.81
2024-01-20T10:01:06.704Z,102192.56
2024-01-20T10:03:34.116Z,102186.56
2024-01-20T10:06:00.869Z,102185.75
2024-01-20T10:08:27.559Z,102178.91
2024-01-20T10:11:04.014Z,102180.78
2024-01-20T10:13:30.608Z,102186.97
2024-01-20T10:15:57.375Z,102184.41
2024-01-20T10:18:24.021Z,102171.19
2024-01-20T10:20:50.628Z,102184.50
2024-01-20T10:23:18.380Z,102181.03
2024-01-20T10:25:44.971Z,102187.88
2024-01-20T10:28:12.001Z,102186.19
2024-01-20T10:30:39.115Z,102187.31
2024-01-20T10:33:09.988Z,102195.41
2024-01-20T10:35:38.345Z,102191.06
2024-01-20T10:38:10.165Z,102191.31
2024-01-20T10:40:39.926Z,102184.28
2024-01-20T10:43:13.804Z,102188.81
2024-01-20T10:45:45.563Z,102192.41
2024-01-20T10:48:18.542Z,102191.66
2024-01-20T10:50:45.892Z,102184.03
2024-01-20T10:53:12.473Z,102186.75
2024-01-20T10:55:40.645Z,102185.16
2024-01-20T10:58:07.186Z,102185.16
2024-01-20T11:00:33.831Z,102187.81
2024-01-20T11:03:00.509Z,102182.56
2024-01-20T11:05:27.217Z,102192.09
2024-01-20T11:08:04.227Z,102186.94
2024-01-20T11:10:30.802Z,102181.69
2024-01-20T11:13:07.150Z,102186.19
2024-01-20T11:15:34.158Z,102175.66
2024-01-20T11:18:03.130Z,102176.56
2024-01-20T11:20:30.455Z,102189.69
2024-01-20T11:22:57.026Z,102180.97
2024-01-20T11:25:23.670Z,102170.41
2024-01-20T11:27:54.257Z,102179.38
2024-01-20T11:30:36.560Z,102188.41
2024-01-20T11:33:03.416Z,102194.50
2024-01-20T11:35:30.066Z,102194.72
2024-01-20T11:37:57.152Z,102196.72
2024-01-20T11:40:23.810Z,102198.59
2024-01-20T11:42:50.844Z,102191.69
2024-01-20T11:45:17.460Z,102199.78
2024-01-20T11:47:44.259Z,102203.41
2024-01-20T11:50:10.934Z,102200.06
2024-01-20T11:52:37.483Z,102198.38
2024-01-20T11:55:04.512Z,102199.34
2024-01-20T11:57:31.265Z,102202.81
2024-01-20T11:59:58.470Z,102209.84
2024-01-20T12:02:25.465Z,102209.88
2024-01-20T12:04:55.138Z,102222.25
2024-01-20T12:07:23.981Z,102205.53
2024-01-20T12:09:51.479Z,102212.44
2024-01-20T12:12:18.189Z,102208.00
2024-01-20T12:14:44.845Z,102204.41
2024-01-20T12:17:12.121Z,102205.19
2024-01-20T12:19:38.878Z,102201.53
2024-01-20T12:22:08.947Z,102199.91
2024-01-20T12:24:35.729Z,102204.38
2024-01-20T12:27:03.159Z,102199.91
2024-01-20T12:29:30.109Z,102201.63
2024-01-20T12:31:58.009Z,102195.44
2024-01-20T12:34:24.898Z,102190.94
2024-01-20T12:36:51.544Z,102189.97
2024-01-20T12:39:18.128Z,102194.41
2024-01-20T12:41:44.744Z,102194.50
2024-01-20T12:44:11.339Z,102200.88
2024-01-20T12:46:37.915Z,102200.28
2024-01-20T12:49:04.685Z,102201.28
2024-01-20T12:51:31.943Z,102200.50
2024-01-20T12:53:58.612Z,102190.84
2024-01-20T12:56:25.273Z,102195.16
2024-01-20T12:58:51.891Z,102201.31
2024-01-20T13:01:18.531Z,102196.13
2024-01-20T13:03:45.213Z,102190.06
2024-01-20T13:06:11.857Z,102200.69
2024-01-20T13:08:38.411Z,102197.19
2024-01-20T13:11:05.132Z,102197.28
2024-01-20T13:13:31.658Z,102181.00
2024-01-20T13:15:58.359Z,102188.06
2024-01-20T13:18:25.280Z,102186.03
2024-01-20T13:20:51.971Z,102197.50
2024-01-20T13:23:18.509Z,102205.63
2024-01-20T13:25:45.132Z,102197.44
2024-01-20T13:28:11.707Z,102207.75
2024-01-20T13:30:38.306Z,102207.69
2024-01-20T13:33:05.208Z,102211.09
2024-01-20T13:35:31.858Z,102218.13
2024-01-20T13:37:58.423Z,102224.25
2024-01-20T13:40:25.049Z,102228.66
2024-01-20T13:42:51.644Z,102221.59
2024-01-20T13:45:18.348Z,102213.63
2024-01-20T13:47:44.923Z,102216.16
2024-01-20T13:50:11.730Z,102220.44
2024-01-20T13:52:38.485Z,102218.56
2024-01-20T13:55:05.517Z,102230.84
2024-01-20T13:57:32.387Z,102221.16
2024-01-20T13:59:59.072Z,102240.63
2024-01-20T14:02:25.657Z,102234.47
2024-01-20T14:04:52.200Z,102240.59
2024-01-20T14:07:18.807Z,102244.06
2024-01-20T14:09:45.456Z,102237.09
2024-01-20T14:12:12.100Z,102253.00
2024-01-20T14:14:38.637Z,102249.50
2024-01-20T14:17:05.225Z,102247.59
2024-01-20T14:19:31.909Z,102249.28
2024-01-20T14:21:58.565Z,102258.91
2024-01-20T14:24:25.136Z,102258.81
2024-01-20T14:26:51.751Z,102258.00
2024-01-20T14:29:18.368Z,102265.09
2024-01-20T14:31:54.263Z,102260.75
2024-01-20T14:34:21.078Z,102266.50
2024-01-20T14:36:49.255Z,102268.22
2024-01-20T14:39:16.090Z,102272.22
2024-01-20T14:41:42.708Z,102273.03
2024-01-20T14:44:09.288Z,102281.38
2024-01-20T14:46:35.877Z,102280.06
2024-01-20T14:49:04.103Z,102287.44
2024-01-20T14:51:32.212Z,102280.88
2024-01-20T14:53:59.165Z,102298.88
2024-01-20T14:56:26.285Z,102294.19
2024-01-20T14:58:52.862Z,102298.38
2024-01-20T15:01:19.419Z,102301.69
2024-01-20T15:03:46.195Z,102309.47
2024-01-20T15:06:12.911Z,102306.59
2024-01-20T15:08:39.489Z,102312.63
2024-01-20T15:11:06.032Z,102304.59
2024-01-20T15:13:32.586Z,102307.03
2024-01-20T15:15:59.129Z,102311.41
2024-01-20T15:18:25.935Z,102319.22
2024-01-20T15:20:52.617Z,102319.13
2024-01-20T15:23:19.208Z,102326.88
2024-01-20T15:25:45.784Z,102331.34
2024-01-20T15:28:12.334Z,102329.66
2024-01-20T15:30:38.937Z,102332.44
2024-01-20T15:33:06.129Z,102339.47
2024-01-20T15:35:32.801Z,102335.06
2024-01-20T15:38:01.093Z,102332.22
2024-01-20T15:40:28.680Z,102333.94
2024-01-20T15:42:55.241Z,102333.63
2024-01-20T15:45:21.864Z,102338.06
2024-01-20T15:47:48.433Z,102343.22
2024-01-20T15:50:15.090Z,102346.63
2024-01-20T15:52:41.724Z,102346.53
2024-01-20T15:55:11.382Z,102347.22
2024-01-20T15:57:38.252Z,102342.91
2024-01-20T16:00:06.181Z,102340.97
2024-01-20T16:02:33.033Z,102344.25
2024-01-20T16:04:59.641Z,102339.81
2024-01-20T16:07:26.322Z,102342.25
2024-01-20T16:09:53.028Z,102342.03
2024-01-20T16:12:19.811Z,102349.13
2024-01-20T16:14:46.384Z,102342.00
2024-01-20T16:17:12.922Z,102335.88
2024-01-20T16:19:39.508Z,102347.97
2024-01-20T16:22:06.174Z,102338.16
2024-01-20T16:24:32.816Z,102344.13
2024-01-20T16:26:59.482Z,102341.63
2024-01-20T16:29:26.068Z,102355.53
2024-01-20T16:31:52.677Z,102344.91
2024-01-20T16:34:19.409Z,102344.75
2024-01-20T16:36:46.184Z,102353.31
2024-01-20T16:39:12.855Z,102354.16
2024-01-20T16:41:39.394Z,102353.28
2024-01-20T16:44:06.026Z,102350.53
2024-01-20T16:46:32.586Z,102353.09
2024-01-20T16:48:59.342Z,102357.47
2024-01-20T16:51:27.807Z,102357.34
2024-01-20T16:53:54.754Z,102355.63
2024-01-20T16:56:22.009Z,102362.59
2024-01-20T16:58:48.818Z,102357.97
2024-01-20T17:01:15.473Z,102358.63
2024-01-20T17:03:42.178Z,102358.63
2024-01-20T17:06:08.769Z,102359.47
2024-01-20T17:08:35.315Z,102366.56
2024-01-20T17:11:01.891Z,102367.53
2024-01-20T17:13:28.437Z,102359.63
2024-01-20T17:15:55.273Z,102373.63
2024-01-20T17:18:21.990Z,102370.03
2024-01-20T17:20:48.594Z,102373.38
2024-01-20T17:23:15.197Z,102369.63
2024-01-20T17:25:42.284Z,102376.50
2024-01-20T17:28:09.082Z,102376.50
2024-01-20T17:30:35.697Z,102376.69
2024-01-20T17:33:02.465Z,102380.13
2024-01-20T17:35:29.111Z,102372.88
2024-01-20T17:37:55.630Z,102379.19
2024-01-20T17:40:22.212Z,102373.81
2024-01-20T17:42:48.963Z,102374.41
2024-01-20T17:45:15.622Z,102369.34
2024-01-20T17:47:42.296Z,102368.31
2024-01-20T17:50:09.008Z,102371.78
2024-01-20T17:52:35.734Z,102369.03
2024-01-20T17:55:02.469Z,102387.38
2024-01-20T17:57:29.060Z,102374.28
2024-01-20T17:59:55.682Z,102378.53
2024-01-20T18:02:22.313Z,102373.16
2024-01-20T18:04:49.203Z,102379.34
2024-01-20T18:07:15.980Z,102380.97
2024-01-20T18:09:42.598Z,102382.50
2024-01-20T18:12:09.245Z,102389.31
2024-01-20T18:14:35.839Z,102380.34
2024-01-20T18:17:02.653Z,102390.09
2024-01-20T18:19:29.909Z,102383.88
2024-01-20T18:21:56.476Z,102383.56
2024-01-20T18:24:23.309Z,102387.75
2024-01-20T18:26:49.869Z,102392.28
2024-01-20T18:29:16.433Z,102391.97
2024-01-20T18:31:43.061Z,102398.34
2024-01-20T18:34:10.069Z,102391.44
2024-01-20T18:36:36.766Z,102402.66
2024-01-20T18:39:03.454Z,102398.13
2024-01-20T18:41:29.979Z,102398.06
2024-01-20T18:43:56.508Z,102391.81
2024-01-20T18:46:23.043Z,102405.00
2024-01-20T18:48:49.727Z,102398.88
2024-01-20T18:51:16.440Z,102402.41
2024-01-20T18:53:43.038Z,102399.69
2024-01-20T18:56:09.734Z,102407.66
2024-01-20T18:58:36.283Z,102404.13
2024-01-20T19:01:03.159Z,102411.09
2024-01-20T19:03:29.853Z,102407.44
2024-01-20T19:05:56.411Z,102406.63
2024-01-20T19:08:22.979Z,102405.91
2024-01-20T19:10:49.526Z,102405.78
2024-01-20T19:13:16.116Z,102402.25
2024-01-20T19:15:42.718Z,102406.56
2024-01-20T19:18:09.528Z,102404.00
2024-01-20T19:20:36.192Z,102405.72
2024-01-20T19:23:02.705Z,102400.59
2024-01-20T19:25:29.223Z,102404.06
2024-01-20T19:27:56.438Z,102395.34
2024-01-20T19:30:23.210Z,102401.50
2024-01-20T19:32:49.919Z,102407.63
2024-01-20T19:35:16.667Z,102405.78
2024-01-20T19:37:43.238Z,102407.56
2024-01-20T19:40:09.868Z,102405.00
2024-01-20T19:42:36.699Z,102404.19
2024-01-20T19:45:03.384Z,102400.81
2024-01-20T19:47:30.009Z,102401.50
2024-01-20T19:49:56.658Z,102392.81
2024-01-20T19:52:23.204Z,102394.59
2024-01-20T19:54:49.828Z,102391.25
2024-01-20T19:57:16.597Z,102386.91
2024-01-20T19:59:43.377Z,102382.44
2024-01-20T20:02:09.944Z,102392.03
2024-01-20T20:04:38.394Z,102393.75
2024-01-20T20:07:05.236Z,102387.75
2024-01-20T20:09:31.798Z,102384.34
2024-01-20T20:11:58.339Z,102386.19
2024-01-20T20:14:25.072Z,102383.56
2024-01-20T20:16:51.736Z,102380.03
2024-01-20T20:19:18.421Z,102390.47
2024-01-20T20:21:44.973Z,102393.25
2024-01-20T20:24:11.661Z,102391.56
2024-01-20T20:26:44.374Z,102385.50
2024-01-20T20:29:14.160Z,102382.88
2024-01-20T20:31:41.008Z,102386.56
2024-01-20T20:34:08.284Z,102377.94
2024-01-20T20:36:35.145Z,102383.97
2024-01-20T20:39:02.289Z,102377.94
2024-01-20T20:41:28.900Z,102380.72
2024-01-20T20:43:55.495Z,102378.94
2024-01-20T20:46:22.209Z,102376.31
2024-01-20T20:48:48.899Z,102377.25
2024-01-20T20:51:15.949Z,102377.03
2024-01-20T20:53:42.515Z,102373.44
2024-01-20T20:56:09.079Z,102368.38
2024-01-20T20:58:35.903Z,102379.94
2024-01-20T21:01:02.816Z,102376.25
2024-01-20T21:03:29.652Z,102373.44
2024-01-20T21:05:56.399Z,102372.84
2024-01-20T21:08:22.994Z,102378.09
2024-01-20T21:10:49.563Z,102379.81
2024-01-20T21:13:16.319Z,102378.03
2024-01-20T21:15:42.971Z,102373.69
2024-01-20T21:18:09.812Z,102373.78
2024-01-20T21:20:36.758Z,102373.81
2024-01-20T21:23:04.424Z,102369.44
2024-01-20T21:25:30.962Z,102358.94
2024-01-20T21:27:57.538Z,102356.25
2024-01-20T21:30:24.213Z,102358.06
2024-01-20T21:32:50.809Z,102353.69
2024-01-20T21:35:17.459Z,102343.38
2024-01-20T21:37:44.014Z,102356.44
2024-01-20T21:40:10.986Z,102345.81
2024-01-20T21:42:37.543Z,102345.81
2024-01-20T21:45:04.593Z,102348.56
2024-01-20T21:47:31.219Z,102345.94
2024-01-20T21:49:57.746Z,102344.94
2024-01-20T21:52:24.460Z,102337.03
2024-01-20T21:54:51.033Z,102344.09
2024-01-20T21:57:17.693Z,102339.72
2024-01-20T21:59:44.253Z,102340.69
2024-01-20T22:02:11.342Z,102335.44
2024-01-20T22:04:37.889Z,102345.03
2024-01-20T22:07:04.511Z,102331.13
2024-01-20T22:09:31.259Z,102337.22
2024-01-20T22:11:57.891Z,102337.09
2024-01-20T22:14:24.445Z,102326.53
2024-01-20T22:16:51.649Z,102324.75
2024-01-20T22:19:18.317Z,102330.06
2024-01-20T22:21:45.013Z,102327.38
2024-01-20T22:24:11.661Z,102324.63
2024-01-20T22:26:38.261Z,102332.50
2024-01-20T22:29:14.780Z,102323.03
2024-01-20T22:31:46.191Z,102328.28
2024-01-20T22:34:12.870Z,102323.91
2024-01-20T22:36:39.632Z,102324.88
2024-01-20T22:39:06.280Z,102324.88
2024-01-20T22:41:33.430Z,102321.47
2024-01-20T22:44:00.050Z,102326.78
2024-01-20T22:46:27.552Z,102327.72
2024-01-20T22:48:55.770Z,102327.72
2024-01-20T22:51:23.010Z,102327.66
2024-01-20T22:53:49.704Z,102335.69
2024-01-20T22:56:16.351Z,102338.22
2024-01-20T22:58:43.014Z,102331.25
2024-01-20T23:01:09.694Z,102333.88
2024-01-20T23:03:36.353Z,102333.06
2024-01-20T23:06:03.034Z,102326.91
2024-01-20T23:08:29.628Z,102328.63
2024-01-20T23:10:56.213Z,102329.50
2024-01-20T23:13:22.771Z,102333.94
2024-01-20T23:15:49.424Z,102334.75
2024-01-20T23:18:16.082Z,102333.88
2024-01-20T23:20:42.991Z,102326.72
2024-01-20T23:23:09.617Z,102329.28
2024-01-20T23:25:36.176Z,102331.91
2024-01-20T23:28:02.764Z,102329.34
2024-01-20T23:30:29.471Z,102319.69
2024-01-20T23:32:56.112Z,102315.38
2024-01-20T23:35:22.737Z,102319.78
2024-01-20T23:37:49.336Z,102317.09
2024-01-20T23:40:15.942Z,102315.44
2024-01-20T23:42:42.541Z,102312.16
2024-01-20T23:45:09.645Z,102312.19
2024-01-20T23:47:36.272Z,102301.63
2024-01-20T23:50:02.913Z,102295.44
2024-01-20T23:52:29.543Z,102300.75
2024-01-20T23:54:56.099Z,102297.16
2024-01-20T23:57:22.679Z,102293.75
2024-01-20T23:59:49.304Z,102291.13
